sensor_id;sensor_type;location;lat;lon;timestamp;temperature;humidity
12438;DHT22;6283;51.330;12.374;2023-02-05T00:00:04;1.60;1.00
12438;DHT22;6283;51.330;12.374;2023-02-05T00:02:31;1.40;1.00
12438;DHT22;6283;51.330;12.374;2023-02-05T00:04:56;1.20;1.00
12438;DHT22;6283;51.330;12.374;2023-02-05T00:07:22;1.20;1.00
12438;DHT22;6283;51.330;12.374;2023-02-05T00:09:48;1.00;1.00
12438;DHT22;6283;51.330;12.374;2023-02-05T00:12:13;1.20;1.00
12438;DHT22;6283;51.330;12.374;2023-02-05T00:14:39;1.10;1.00
12438;DHT22;6283;51.330;12.374;2023-02-05T00:17:04;1.30;1.00
12438;DHT22;6283;51.330;12.374;2023-02-05T00:19:30;1.20;1.00
12438;DHT22;6283;51.330;12.374;2023-02-05T00:21:56;1.30;1.00
12438;DHT22;6283;51.330;12.374;2023-02-05T00:24:21;1.00;1.00
12438;DHT22;6283;51.330;12.374;2023-02-05T00:26:47;1.20;1.00
12438;DHT22;6283;51.330;12.374;2023-02-05T00:29:12;0.90;1.00
12438;DHT22;6283;51.330;12.374;2023-02-05T00:31:38;1.00;1.00
12438;DHT22;6283;51.330;12.374;2023-02-05T00:34:03;0.90;1.00
12438;DHT22;6283;51.330;12.374;2023-02-05T00:36:29;0.90;1.00
12438;DHT22;6283;51.330;12.374;2023-02-05T00:38:57;0.80;1.00
12438;DHT22;6283;51.330;12.374;2023-02-05T00:41:23;1.00;1.00
12438;DHT22;6283;51.330;12.374;2023-02-05T00:43:48;0.90;1.00
12438;DHT22;6283;51.330;12.374;2023-02-05T00:46:14;1.10;1.00
12438;DHT22;6283;51.330;12.374;2023-02-05T00:48:41;0.90;1.00
12438;DHT22;6283;51.330;12.374;2023-02-05T00:51:07;0.80;1.00
12438;DHT22;6283;51.330;12.374;2023-02-05T00:53:33;1.20;1.00
12438;DHT22;6283;51.330;12.374;2023-02-05T00:55:59;1.00;1.00
12438;DHT22;6283;51.330;12.374;2023-02-05T00:58:25;1.10;1.00
12438;DHT22;6283;51.330;12.374;2023-02-05T01:00:50;0.90;1.00
12438;DHT22;6283;51.330;12.374;2023-02-05T01:03:17;1.00;1.00
12438;DHT22;6283;51.330;12.374;2023-02-05T01:05:42;1.10;1.00
12438;DHT22;6283;51.330;12.374;2023-02-05T01:08:09;1.10;1.00
12438;DHT22;6283;51.330;12.374;2023-02-05T01:10:35;1.20;1.00
12438;DHT22;6283;51.330;12.374;2023-02-05T01:13:02;1.10;1.00
12438;DHT22;6283;51.330;12.374;2023-02-05T01:15:27;1.30;1.00
12438;DHT22;6283;51.330;12.374;2023-02-05T01:17:53;1.20;1.00
12438;DHT22;6283;51.330;12.374;2023-02-05T01:20:19;1.10;1.00
12438;DHT22;6283;51.330;12.374;2023-02-05T01:22:46;1.10;1.00
12438;DHT22;6283;51.330;12.374;2023-02-05T01:25:11;1.30;1.00
12438;DHT22;6283;51.330;12.374;2023-02-05T01:27:37;1.20;1.00
12438;DHT22;6283;51.330;12.374;2023-02-05T01:30:04;1.10;1.00
12438;DHT22;6283;51.330;12.374;2023-02-05T01:32:30;1.00;1.00
12438;DHT22;6283;51.330;12.374;2023-02-05T01:34:55;1.20;1.00
12438;DHT22;6283;51.330;12.374;2023-02-05T01:37:21;1.10;1.00
12438;DHT22;6283;51.330;12.374;2023-02-05T01:39:47;1.20;1.00
12438;DHT22;6283;51.330;12.374;2023-02-05T01:44:43;0.90;1.00
12438;DHT22;6283;51.330;12.374;2023-02-05T01:47:08;1.20;1.00
12438;DHT22;6283;51.330;12.374;2023-02-05T01:49:40;1.00;1.00
12438;DHT22;6283;51.330;12.374;2023-02-05T01:52:14;1.00;1.00
12438;DHT22;6283;51.330;12.374;2023-02-05T01:54:43;1.00;1.00
12438;DHT22;6283;51.330;12.374;2023-02-05T01:57:16;1.00;1.00
12438;DHT22;6283;51.330;12.374;2023-02-05T01:59:43;0.90;1.00
12438;DHT22;6283;51.330;12.374;2023-02-05T02:02:09;0.80;1.00
12438;DHT22;6283;51.330;12.374;2023-02-05T02:04:46;0.80;1.00
12438;DHT22;6283;51.330;12.374;2023-02-05T02:07:14;0.70;1.00
12438;DHT22;6283;51.330;12.374;2023-02-05T02:09:42;0.70;1.00
12438;DHT22;6283;51.330;12.374;2023-02-05T02:12:09;0.60;1.00
12438;DHT22;6283;51.330;12.374;2023-02-05T02:14:36;0.50;1.00
12438;DHT22;6283;51.330;12.374;2023-02-05T02:17:04;0.40;1.00
12438;DHT22;6283;51.330;12.374;2023-02-05T02:27:57;0.30;1.00
12438;DHT22;6283;51.330;12.374;2023-02-05T02:35:42;0.40;1.00
12438;DHT22;6283;51.330;12.374;2023-02-05T02:38:21;0.40;1.00
12438;DHT22;6283;51.330;12.374;2023-02-05T02:41:02;0.40;1.00
12438;DHT22;6283;51.330;12.374;2023-02-05T02:43:36;0.40;1.00
12438;DHT22;6283;51.330;12.374;2023-02-05T02:46:08;0.40;1.00
12438;DHT22;6283;51.330;12.374;2023-02-05T02:48:35;0.20;1.00
12438;DHT22;6283;51.330;12.374;2023-02-05T02:51:02;0.30;1.00
12438;DHT22;6283;51.330;12.374;2023-02-05T02:53:39;0.40;1.00
12438;DHT22;6283;51.330;12.374;2023-02-05T02:56:07;0.30;1.00
12438;DHT22;6283;51.330;12.374;2023-02-05T02:58:38;0.40;1.00
12438;DHT22;6283;51.330;12.374;2023-02-05T03:01:06;0.60;1.00
12438;DHT22;6283;51.330;12.374;2023-02-05T03:03:36;0.40;1.00
12438;DHT22;6283;51.330;12.374;2023-02-05T03:06:05;0.40;1.00
12438;DHT22;6283;51.330;12.374;2023-02-05T03:09:23;0.60;1.00
12438;DHT22;6283;51.330;12.374;2023-02-05T03:11:23;0.50;1.00
12438;DHT22;6283;51.330;12.374;2023-02-05T03:13:50;0.20;1.00
12438;DHT22;6283;51.330;12.374;2023-02-05T03:16:17;0.20;1.00
12438;DHT22;6283;51.330;12.374;2023-02-05T03:18:43;0.30;1.00
12438;DHT22;6283;51.330;12.374;2023-02-05T03:21:17;0.40;1.00
12438;DHT22;6283;51.330;12.374;2023-02-05T03:23:44;0.30;1.00
12438;DHT22;6283;51.330;12.374;2023-02-05T03:26:25;0.20;1.00
12438;DHT22;6283;51.330;12.374;2023-02-05T03:28:51;0.10;1.00
12438;DHT22;6283;51.330;12.374;2023-02-05T03:31:34;0.40;1.00
12438;DHT22;6283;51.330;12.374;2023-02-05T03:34:39;0.20;1.00
12438;DHT22;6283;51.330;12.374;2023-02-05T03:40:21;0.10;1.00
12438;DHT22;6283;51.330;12.374;2023-02-05T03:43:18;0.20;1.00
12438;DHT22;6283;51.330;12.374;2023-02-05T03:46:31;-0.10;1.00
12438;DHT22;6283;51.330;12.374;2023-02-05T03:49:11;0.20;1.00
12438;DHT22;6283;51.330;12.374;2023-02-05T03:51:50;-0.10;1.00
12438;DHT22;6283;51.330;12.374;2023-02-05T03:59:49;0.00;1.00
12438;DHT22;6283;51.330;12.374;2023-02-05T04:02:16;-0.10;1.00
12438;DHT22;6283;51.330;12.374;2023-02-05T04:04:42;0.00;1.00
12438;DHT22;6283;51.330;12.374;2023-02-05T04:07:08;-0.20;1.00
12438;DHT22;6283;51.330;12.374;2023-02-05T04:09:34;-0.20;1.00
12438;DHT22;6283;51.330;12.374;2023-02-05T04:11:59;-0.10;1.00
12438;DHT22;6283;51.330;12.374;2023-02-05T04:14:25;-0.10;1.00
12438;DHT22;6283;51.330;12.374;2023-02-05T04:16:50;-0.20;1.00
12438;DHT22;6283;51.330;12.374;2023-02-05T04:19:16;-0.20;1.00
12438;DHT22;6283;51.330;12.374;2023-02-05T04:21:42;-0.40;1.00
12438;DHT22;6283;51.330;12.374;2023-02-05T04:24:07;-0.40;1.00
12438;DHT22;6283;51.330;12.374;2023-02-05T04:26:33;-0.10;1.00
12438;DHT22;6283;51.330;12.374;2023-02-05T04:28:59;-0.50;1.00
12438;DHT22;6283;51.330;12.374;2023-02-05T04:31:24;-0.50;1.00
12438;DHT22;6283;51.330;12.374;2023-02-05T04:33:50;-0.40;1.00
12438;DHT22;6283;51.330;12.374;2023-02-05T04:36:15;-0.50;1.00
12438;DHT22;6283;51.330;12.374;2023-02-05T04:38:41;-0.40;1.00
12438;DHT22;6283;51.330;12.374;2023-02-05T04:41:07;-0.50;1.00
12438;DHT22;6283;51.330;12.374;2023-02-05T04:43:33;-0.50;1.00
12438;DHT22;6283;51.330;12.374;2023-02-05T04:46:04;-0.50;1.00
12438;DHT22;6283;51.330;12.374;2023-02-05T04:48:30;-0.30;1.00
12438;DHT22;6283;51.330;12.374;2023-02-05T04:50:55;-0.30;1.00
12438;DHT22;6283;51.330;12.374;2023-02-05T04:53:21;-0.40;1.00
12438;DHT22;6283;51.330;12.374;2023-02-05T04:55:46;-0.50;1.00
12438;DHT22;6283;51.330;12.374;2023-02-05T04:58:12;-0.30;1.00
12438;DHT22;6283;51.330;12.374;2023-02-05T05:00:38;-0.40;1.00
12438;DHT22;6283;51.330;12.374;2023-02-05T05:03:04;-0.50;1.00
12438;DHT22;6283;51.330;12.374;2023-02-05T05:05:29;-0.30;1.00
12438;DHT22;6283;51.330;12.374;2023-02-05T05:07:55;-0.30;1.00
12438;DHT22;6283;51.330;12.374;2023-02-05T05:10:23;-0.40;1.00
12438;DHT22;6283;51.330;12.374;2023-02-05T05:12:48;-0.70;1.00
12438;DHT22;6283;51.330;12.374;2023-02-05T05:15:14;-0.30;1.00
12438;DHT22;6283;51.330;12.374;2023-02-05T05:17:39;-0.40;1.00
12438;DHT22;6283;51.330;12.374;2023-02-05T05:20:05;-0.60;1.00
12438;DHT22;6283;51.330;12.374;2023-02-05T05:22:31;-0.70;1.00
12438;DHT22;6283;51.330;12.374;2023-02-05T05:24:56;-0.40;1.00
12438;DHT22;6283;51.330;12.374;2023-02-05T05:27:22;-0.60;1.00
12438;DHT22;6283;51.330;12.374;2023-02-05T05:29:48;-0.60;1.00
12438;DHT22;6283;51.330;12.374;2023-02-05T05:32:15;-0.70;1.00
12438;DHT22;6283;51.330;12.374;2023-02-05T05:34:41;-0.50;1.00
12438;DHT22;6283;51.330;12.374;2023-02-05T05:37:06;-0.60;1.00
12438;DHT22;6283;51.330;12.374;2023-02-05T05:39:32;-0.70;1.00
12438;DHT22;6283;51.330;12.374;2023-02-05T05:42:16;-0.80;1.00
12438;DHT22;6283;51.330;12.374;2023-02-05T05:45:00;-0.70;1.00
12438;DHT22;6283;51.330;12.374;2023-02-05T05:47:26;-0.60;1.00
12438;DHT22;6283;51.330;12.374;2023-02-05T05:49:52;-0.70;1.00
12438;DHT22;6283;51.330;12.374;2023-02-05T05:52:17;-0.80;1.00
12438;DHT22;6283;51.330;12.374;2023-02-05T05:54:43;-0.70;1.00
12438;DHT22;6283;51.330;12.374;2023-02-05T05:57:08;-0.50;1.00
12438;DHT22;6283;51.330;12.374;2023-02-05T05:59:34;-0.80;1.00
12438;DHT22;6283;51.330;12.374;2023-02-05T06:02:00;-0.60;1.00
12438;DHT22;6283;51.330;12.374;2023-02-05T06:04:26;-0.70;1.00
12438;DHT22;6283;51.330;12.374;2023-02-05T06:06:53;-0.80;1.00
12438;DHT22;6283;51.330;12.374;2023-02-05T06:09:18;-0.60;1.00
12438;DHT22;6283;51.330;12.374;2023-02-05T06:11:48;-0.70;1.00
12438;DHT22;6283;51.330;12.374;2023-02-05T06:14:13;-0.60;1.00
12438;DHT22;6283;51.330;12.374;2023-02-05T06:16:40;-0.60;1.00
12438;DHT22;6283;51.330;12.374;2023-02-05T06:19:05;-0.50;1.00
12438;DHT22;6283;51.330;12.374;2023-02-05T06:21:31;-0.60;1.00
12438;DHT22;6283;51.330;12.374;2023-02-05T06:23:57;-0.50;1.00
12438;DHT22;6283;51.330;12.374;2023-02-05T06:26:22;-0.40;1.00
12438;DHT22;6283;51.330;12.374;2023-02-05T06:28:48;-0.60;1.00
12438;DHT22;6283;51.330;12.374;2023-02-05T06:31:14;-0.60;1.00
12438;DHT22;6283;51.330;12.374;2023-02-05T06:33:39;-0.50;1.00
12438;DHT22;6283;51.330;12.374;2023-02-05T06:36:05;-0.60;1.00
12438;DHT22;6283;51.330;12.374;2023-02-05T06:38:31;-0.50;1.00
12438;DHT22;6283;51.330;12.374;2023-02-05T06:40:56;-0.50;1.00
12438;DHT22;6283;51.330;12.374;2023-02-05T06:43:22;-0.60;1.00
12438;DHT22;6283;51.330;12.374;2023-02-05T06:45:48;-0.50;1.00
12438;DHT22;6283;51.330;12.374;2023-02-05T06:48:13;-0.50;1.00
12438;DHT22;6283;51.330;12.374;2023-02-05T06:50:39;-0.50;1.00
12438;DHT22;6283;51.330;12.374;2023-02-05T06:53:04;-0.60;1.00
12438;DHT22;6283;51.330;12.374;2023-02-05T06:55:31;-0.50;1.00
12438;DHT22;6283;51.330;12.374;2023-02-05T06:57:57;-0.50;1.00
12438;DHT22;6283;51.330;12.374;2023-02-05T07:00:22;-0.50;1.00
12438;DHT22;6283;51.330;12.374;2023-02-05T07:02:48;-0.50;1.00
12438;DHT22;6283;51.330;12.374;2023-02-05T07:05:13;-0.50;1.00
12438;DHT22;6283;51.330;12.374;2023-02-05T07:07:39;-0.40;1.00
12438;DHT22;6283;51.330;12.374;2023-02-05T07:10:05;-0.50;1.00
12438;DHT22;6283;51.330;12.374;2023-02-05T07:12:31;-0.50;1.00
12438;DHT22;6283;51.330;12.374;2023-02-05T07:14:56;-0.40;1.00
12438;DHT22;6283;51.330;12.374;2023-02-05T07:17:22;-0.50;1.00
12438;DHT22;6283;51.330;12.374;2023-02-05T07:19:47;-0.50;1.00
12438;DHT22;6283;51.330;12.374;2023-02-05T07:22:14;-0.50;1.00
12438;DHT22;6283;51.330;12.374;2023-02-05T07:24:39;-0.60;1.00
12438;DHT22;6283;51.330;12.374;2023-02-05T07:27:05;-0.50;1.00
12438;DHT22;6283;51.330;12.374;2023-02-05T07:29:31;-0.40;1.00
12438;DHT22;6283;51.330;12.374;2023-02-05T07:31:56;-0.40;1.00
12438;DHT22;6283;51.330;12.374;2023-02-05T07:34:22;-0.40;1.00
12438;DHT22;6283;51.330;12.374;2023-02-05T07:36:51;-0.30;1.00
12438;DHT22;6283;51.330;12.374;2023-02-05T07:39:17;-0.20;1.00
12438;DHT22;6283;51.330;12.374;2023-02-05T07:41:43;-0.30;1.00
12438;DHT22;6283;51.330;12.374;2023-02-05T07:44:08;-0.30;1.00
12438;DHT22;6283;51.330;12.374;2023-02-05T07:46:34;-0.10;1.00
12438;DHT22;6283;51.330;12.374;2023-02-05T07:49:00;0.10;1.00
12438;DHT22;6283;51.330;12.374;2023-02-05T07:51:25;0.00;1.00
12438;DHT22;6283;51.330;12.374;2023-02-05T07:53:51;0.20;1.00
12438;DHT22;6283;51.330;12.374;2023-02-05T07:56:18;0.20;1.00
12438;DHT22;6283;51.330;12.374;2023-02-05T07:58:47;0.00;1.00
12438;DHT22;6283;51.330;12.374;2023-02-05T08:01:12;0.40;1.00
12438;DHT22;6283;51.330;12.374;2023-02-05T08:03:38;0.30;1.00
12438;DHT22;6283;51.330;12.374;2023-02-05T08:06:06;0.50;1.00
12438;DHT22;6283;51.330;12.374;2023-02-05T08:08:31;0.40;1.00
12438;DHT22;6283;51.330;12.374;2023-02-05T08:11:00;0.60;1.00
12438;DHT22;6283;51.330;12.374;2023-02-05T08:13:26;0.70;1.00
12438;DHT22;6283;51.330;12.374;2023-02-05T08:15:51;0.90;1.00
12438;DHT22;6283;51.330;12.374;2023-02-05T08:18:17;0.60;1.00
12438;DHT22;6283;51.330;12.374;2023-02-05T08:20:43;1.00;1.00
12438;DHT22;6283;51.330;12.374;2023-02-05T08:23:09;0.90;1.00
12438;DHT22;6283;51.330;12.374;2023-02-05T08:25:34;1.00;1.00
12438;DHT22;6283;51.330;12.374;2023-02-05T08:28:00;1.30;1.00
12438;DHT22;6283;51.330;12.374;2023-02-05T08:30:26;1.30;1.00
12438;DHT22;6283;51.330;12.374;2023-02-05T08:32:51;1.40;1.00
12438;DHT22;6283;51.330;12.374;2023-02-05T08:35:17;1.40;1.00
12438;DHT22;6283;51.330;12.374;2023-02-05T08:37:42;1.40;1.00
12438;DHT22;6283;51.330;12.374;2023-02-05T08:40:09;1.30;1.00
12438;DHT22;6283;51.330;12.374;2023-02-05T08:42:35;1.40;1.00
12438;DHT22;6283;51.330;12.374;2023-02-05T08:45:00;1.70;1.00
12438;DHT22;6283;51.330;12.374;2023-02-05T08:47:28;1.40;1.00
12438;DHT22;6283;51.330;12.374;2023-02-05T08:49:54;1.80;1.00
12438;DHT22;6283;51.330;12.374;2023-02-05T08:52:19;1.90;1.00
12438;DHT22;6283;51.330;12.374;2023-02-05T08:54:45;1.60;1.00
12438;DHT22;6283;51.330;12.374;2023-02-05T08:57:12;1.90;1.00
12438;DHT22;6283;51.330;12.374;2023-02-05T08:59:38;1.90;1.00
12438;DHT22;6283;51.330;12.374;2023-02-05T09:02:03;2.00;1.00
12438;DHT22;6283;51.330;12.374;2023-02-05T09:04:29;2.10;1.00
12438;DHT22;6283;51.330;12.374;2023-02-05T09:06:55;1.90;1.00
12438;DHT22;6283;51.330;12.374;2023-02-05T09:09:21;2.10;1.00
12438;DHT22;6283;51.330;12.374;2023-02-05T09:11:47;2.10;1.00
12438;DHT22;6283;51.330;12.374;2023-02-05T09:14:13;2.20;1.00
12438;DHT22;6283;51.330;12.374;2023-02-05T09:16:39;2.20;1.00
12438;DHT22;6283;51.330;12.374;2023-02-05T09:19:06;2.40;1.00
12438;DHT22;6283;51.330;12.374;2023-02-05T09:21:32;2.40;1.00
12438;DHT22;6283;51.330;12.374;2023-02-05T09:23:58;2.20;1.00
12438;DHT22;6283;51.330;12.374;2023-02-05T09:26:23;2.40;1.00
12438;DHT22;6283;51.330;12.374;2023-02-05T09:28:49;2.10;1.00
12438;DHT22;6283;51.330;12.374;2023-02-05T09:31:17;2.20;1.00
12438;DHT22;6283;51.330;12.374;2023-02-05T09:33:44;2.50;1.00
12438;DHT22;6283;51.330;12.374;2023-02-05T09:36:19;2.30;1.00
12438;DHT22;6283;51.330;12.374;2023-02-05T09:38:46;2.30;1.00
12438;DHT22;6283;51.330;12.374;2023-02-05T09:43:57;2.60;1.00
12438;DHT22;6283;51.330;12.374;2023-02-05T09:51:49;2.60;1.00
12438;DHT22;6283;51.330;12.374;2023-02-05T09:54:23;2.60;1.00
12438;DHT22;6283;51.330;12.374;2023-02-05T09:56:52;2.80;1.00
12438;DHT22;6283;51.330;12.374;2023-02-05T09:59:25;2.80;1.00
12438;DHT22;6283;51.330;12.374;2023-02-05T10:01:55;3.00;1.00
12438;DHT22;6283;51.330;12.374;2023-02-05T10:04:21;2.90;1.00
12438;DHT22;6283;51.330;12.374;2023-02-05T10:10:26;3.10;1.00
12438;DHT22;6283;51.330;12.374;2023-02-05T10:21:43;3.10;1.00
12438;DHT22;6283;51.330;12.374;2023-02-05T10:27:23;3.20;1.00
12438;DHT22;6283;51.330;12.374;2023-02-05T10:33:18;3.60;1.00
12438;DHT22;6283;51.330;12.374;2023-02-05T10:35:58;3.40;1.00
12438;DHT22;6283;51.330;12.374;2023-02-05T10:38:30;3.80;1.00
12438;DHT22;6283;51.330;12.374;2023-02-05T10:41:04;3.80;1.00
12438;DHT22;6283;51.330;12.374;2023-02-05T10:43:55;3.80;1.00
12438;DHT22;6283;51.330;12.374;2023-02-05T10:46:29;3.90;1.00
12438;DHT22;6283;51.330;12.374;2023-02-05T10:49:05;3.70;1.00
12438;DHT22;6283;51.330;12.374;2023-02-05T10:51:39;3.90;1.00
12438;DHT22;6283;51.330;12.374;2023-02-05T10:54:34;3.80;1.00
12438;DHT22;6283;51.330;12.374;2023-02-05T10:57:00;3.90;1.00
12438;DHT22;6283;51.330;12.374;2023-02-05T10:59:31;3.90;1.00
12438;DHT22;6283;51.330;12.374;2023-02-05T11:02:02;3.90;1.00
12438;DHT22;6283;51.330;12.374;2023-02-05T11:07:48;3.90;1.00
12438;DHT22;6283;51.330;12.374;2023-02-05T11:10:22;4.10;1.00
12438;DHT22;6283;51.330;12.374;2023-02-05T11:12:54;4.20;1.00
12438;DHT22;6283;51.330;12.374;2023-02-05T11:15:24;4.30;1.00
12438;DHT22;6283;51.330;12.374;2023-02-05T11:17:53;4.20;1.00
12438;DHT22;6283;51.330;12.374;2023-02-05T11:22:44;4.50;1.00
12438;DHT22;6283;51.330;12.374;2023-02-05T11:25:20;4.20;1.00
12438;DHT22;6283;51.330;12.374;2023-02-05T11:27:58;4.50;1.00
12438;DHT22;6283;51.330;12.374;2023-02-05T11:30:32;4.30;1.00
12438;DHT22;6283;51.330;12.374;2023-02-05T11:33:23;4.40;1.00
12438;DHT22;6283;51.330;12.374;2023-02-05T11:36:02;4.20;1.00
12438;DHT22;6283;51.330;12.374;2023-02-05T11:41:29;4.50;1.00
12438;DHT22;6283;51.330;12.374;2023-02-05T11:43:57;4.40;1.00
12438;DHT22;6283;51.330;12.374;2023-02-05T11:46:25;4.50;1.00
12438;DHT22;6283;51.330;12.374;2023-02-05T11:49:03;4.40;1.00
12438;DHT22;6283;51.330;12.374;2023-02-05T11:59:25;4.40;1.00
12438;DHT22;6283;51.330;12.374;2023-02-05T12:01:51;4.50;1.00
12438;DHT22;6283;51.330;12.374;2023-02-05T12:04:19;4.70;1.00
12438;DHT22;6283;51.330;12.374;2023-02-05T12:06:54;4.60;1.00
12438;DHT22;6283;51.330;12.374;2023-02-05T12:09:23;4.60;1.00
12438;DHT22;6283;51.330;12.374;2023-02-05T12:12:07;4.70;1.00
12438;DHT22;6283;51.330;12.374;2023-02-05T12:17:48;4.70;1.00
12438;DHT22;6283;51.330;12.374;2023-02-05T12:20:32;4.90;1.00
12438;DHT22;6283;51.330;12.374;2023-02-05T12:34:15;4.70;1.00
12438;DHT22;6283;51.330;12.374;2023-02-05T12:39:36;4.60;1.00
12438;DHT22;6283;51.330;12.374;2023-02-05T12:58:51;4.70;1.00
12438;DHT22;6283;51.330;12.374;2023-02-05T13:01:30;4.70;1.00
12438;DHT22;6283;51.330;12.374;2023-02-05T13:03:59;4.80;1.00
12438;DHT22;6283;51.330;12.374;2023-02-05T13:06:33;4.70;1.00
12438;DHT22;6283;51.330;12.374;2023-02-05T13:09:20;4.90;1.00
12438;DHT22;6283;51.330;12.374;2023-02-05T13:12:00;4.90;1.00
12438;DHT22;6283;51.330;12.374;2023-02-05T13:14:43;4.80;1.00
12438;DHT22;6283;51.330;12.374;2023-02-05T13:17:13;4.80;1.00
12438;DHT22;6283;51.330;12.374;2023-02-05T13:19:48;5.00;1.00
12438;DHT22;6283;51.330;12.374;2023-02-05T13:22:22;4.90;1.00
12438;DHT22;6283;51.330;12.374;2023-02-05T13:28:32;4.90;1.00
12438;DHT22;6283;51.330;12.374;2023-02-05T13:31:08;5.00;1.00
12438;DHT22;6283;51.330;12.374;2023-02-05T13:33:35;5.00;1.00
12438;DHT22;6283;51.330;12.374;2023-02-05T13:36:07;5.00;1.00
12438;DHT22;6283;51.330;12.374;2023-02-05T13:44:53;5.00;1.00
12438;DHT22;6283;51.330;12.374;2023-02-05T13:52:40;5.30;1.00
12438;DHT22;6283;51.330;12.374;2023-02-05T13:55:19;5.50;1.00
12438;DHT22;6283;51.330;12.374;2023-02-05T13:58:16;5.20;1.00
12438;DHT22;6283;51.330;12.374;2023-02-05T14:03:25;5.30;1.00
12438;DHT22;6283;51.330;12.374;2023-02-05T14:05:55;5.40;1.00
12438;DHT22;6283;51.330;12.374;2023-02-05T14:08:24;5.40;1.00
12438;DHT22;6283;51.330;12.374;2023-02-05T14:11:02;5.50;1.00
12438;DHT22;6283;51.330;12.374;2023-02-05T14:13:32;5.60;1.00
12438;DHT22;6283;51.330;12.374;2023-02-05T14:26:53;5.60;1.00
12438;DHT22;6283;51.330;12.374;2023-02-05T14:29:42;5.60;1.00
12438;DHT22;6283;51.330;12.374;2023-02-05T14:35:00;5.40;1.00
12438;DHT22;6283;51.330;12.374;2023-02-05T14:37:39;5.50;1.00
12438;DHT22;6283;51.330;12.374;2023-02-05T14:40:24;5.30;1.00
12438;DHT22;6283;51.330;12.374;2023-02-05T14:42:53;5.50;1.00
12438;DHT22;6283;51.330;12.374;2023-02-05T14:45:21;5.30;1.00
12438;DHT22;6283;51.330;12.374;2023-02-05T14:47:47;5.50;1.00
12438;DHT22;6283;51.330;12.374;2023-02-05T14:50:21;5.20;1.00
12438;DHT22;6283;51.330;12.374;2023-02-05T14:52:53;5.50;1.00
12438;DHT22;6283;51.330;12.374;2023-02-05T14:55:25;5.00;1.00
12438;DHT22;6283;51.330;12.374;2023-02-05T14:58:05;5.00;1.00
12438;DHT22;6283;51.330;12.374;2023-02-05T15:00:39;5.00;1.00
12438;DHT22;6283;51.330;12.374;2023-02-05T15:13:21;5.20;1.00
12438;DHT22;6283;51.330;12.374;2023-02-05T15:18:38;5.20;1.00
12438;DHT22;6283;51.330;12.374;2023-02-05T15:21:05;5.20;1.00
12438;DHT22;6283;51.330;12.374;2023-02-05T15:23:44;5.50;1.00
12438;DHT22;6283;51.330;12.374;2023-02-05T15:26:21;5.50;1.00
12438;DHT22;6283;51.330;12.374;2023-02-05T15:29:12;5.30;1.00
12438;DHT22;6283;51.330;12.374;2023-02-05T15:31:57;5.30;1.00
12438;DHT22;6283;51.330;12.374;2023-02-05T15:34:35;5.90;1.00
12438;DHT22;6283;51.330;12.374;2023-02-05T15:37:16;6.20;1.00
12438;DHT22;6283;51.330;12.374;2023-02-05T15:39:54;6.40;1.00
12438;DHT22;6283;51.330;12.374;2023-02-05T15:42:34;6.40;1.00
12438;DHT22;6283;51.330;12.374;2023-02-05T15:45:17;6.30;1.00
12438;DHT22;6283;51.330;12.374;2023-02-05T15:47:43;6.70;1.00
12438;DHT22;6283;51.330;12.374;2023-02-05T15:50:12;6.20;1.00
12438;DHT22;6283;51.330;12.374;2023-02-05T15:52:38;5.90;1.00
12438;DHT22;6283;51.330;12.374;2023-02-05T15:55:10;5.60;1.00
12438;DHT22;6283;51.330;12.374;2023-02-05T15:57:36;5.50;1.00
12438;DHT22;6283;51.330;12.374;2023-02-05T16:00:07;5.20;1.00
12438;DHT22;6283;51.330;12.374;2023-02-05T16:02:33;4.60;1.00
12438;DHT22;6283;51.330;12.374;2023-02-05T16:05:18;4.40;1.00
12438;DHT22;6283;51.330;12.374;2023-02-05T16:07:44;4.10;1.00
12438;DHT22;6283;51.330;12.374;2023-02-05T16:10:21;4.00;1.00
12438;DHT22;6283;51.330;12.374;2023-02-05T16:13:04;3.90;1.00
12438;DHT22;6283;51.330;12.374;2023-02-05T16:18:02;3.70;1.00
12438;DHT22;6283;51.330;12.374;2023-02-05T16:20:31;3.70;1.00
12438;DHT22;6283;51.330;12.374;2023-02-05T16:23:07;3.30;1.00
12438;DHT22;6283;51.330;12.374;2023-02-05T16:25:55;3.30;1.00
12438;DHT22;6283;51.330;12.374;2023-02-05T16:28:29;3.30;1.00
12438;DHT22;6283;51.330;12.374;2023-02-05T16:30:56;3.30;1.00
12438;DHT22;6283;51.330;12.374;2023-02-05T16:33:30;2.90;1.00
12438;DHT22;6283;51.330;12.374;2023-02-05T16:36:00;2.80;1.00
12438;DHT22;6283;51.330;12.374;2023-02-05T16:38:26;2.90;1.00
12438;DHT22;6283;51.330;12.374;2023-02-05T16:40:55;2.70;1.00
12438;DHT22;6283;51.330;12.374;2023-02-05T16:43:33;2.80;1.00
12438;DHT22;6283;51.330;12.374;2023-02-05T16:48:35;2.50;1.00
12438;DHT22;6283;51.330;12.374;2023-02-05T16:51:02;2.60;1.00
12438;DHT22;6283;51.330;12.374;2023-02-05T16:53:30;2.60;1.00
12438;DHT22;6283;51.330;12.374;2023-02-05T16:56:00;2.40;1.00
12438;DHT22;6283;51.330;12.374;2023-02-05T16:58:37;2.40;1.00
12438;DHT22;6283;51.330;12.374;2023-02-05T17:01:08;2.50;1.00
12438;DHT22;6283;51.330;12.374;2023-02-05T17:03:37;2.50;1.00
12438;DHT22;6283;51.330;12.374;2023-02-05T17:06:10;2.40;1.00
12438;DHT22;6283;51.330;12.374;2023-02-05T17:08:37;2.30;1.00
12438;DHT22;6283;51.330;12.374;2023-02-05T17:11:05;2.20;1.00
12438;DHT22;6283;51.330;12.374;2023-02-05T17:16:29;2.40;1.00
12438;DHT22;6283;51.330;12.374;2023-02-05T17:19:00;2.10;1.00
12438;DHT22;6283;51.330;12.374;2023-02-05T17:21:44;2.30;1.00
12438;DHT22;6283;51.330;12.374;2023-02-05T17:24:09;2.20;1.00
12438;DHT22;6283;51.330;12.374;2023-02-05T17:26:38;2.20;1.00
12438;DHT22;6283;51.330;12.374;2023-02-05T17:29:07;2.00;1.00
12438;DHT22;6283;51.330;12.374;2023-02-05T17:31:35;2.20;1.00
12438;DHT22;6283;51.330;12.374;2023-02-05T17:34:01;2.10;1.00
12438;DHT22;6283;51.330;12.374;2023-02-05T17:36:27;2.00;1.00
12438;DHT22;6283;51.330;12.374;2023-02-05T17:38:53;1.90;1.00
12438;DHT22;6283;51.330;12.374;2023-02-05T17:41:24;2.00;1.00
12438;DHT22;6283;51.330;12.374;2023-02-05T17:44:11;2.10;1.00
12438;DHT22;6283;51.330;12.374;2023-02-05T17:46:37;1.70;1.00
12438;DHT22;6283;51.330;12.374;2023-02-05T17:49:03;1.80;1.00
12438;DHT22;6283;51.330;12.374;2023-02-05T17:51:29;1.70;1.00
12438;DHT22;6283;51.330;12.374;2023-02-05T17:53:54;1.70;1.00
12438;DHT22;6283;51.330;12.374;2023-02-05T17:56:21;1.70;1.00
12438;DHT22;6283;51.330;12.374;2023-02-05T17:58:48;1.70;1.00
12438;DHT22;6283;51.330;12.374;2023-02-05T18:01:14;1.60;1.00
12438;DHT22;6283;51.330;12.374;2023-02-05T18:03:40;1.50;1.00
12438;DHT22;6283;51.330;12.374;2023-02-05T18:06:06;1.70;1.00
12438;DHT22;6283;51.330;12.374;2023-02-05T18:08:31;1.50;1.00
12438;DHT22;6283;51.330;12.374;2023-02-05T18:11:00;1.50;1.00
12438;DHT22;6283;51.330;12.374;2023-02-05T18:13:26;1.40;1.00
12438;DHT22;6283;51.330;12.374;2023-02-05T18:15:51;1.40;1.00
12438;DHT22;6283;51.330;12.374;2023-02-05T18:18:19;1.20;1.00
12438;DHT22;6283;51.330;12.374;2023-02-05T18:20:45;1.20;1.00
12438;DHT22;6283;51.330;12.374;2023-02-05T18:23:11;1.30;1.00
12438;DHT22;6283;51.330;12.374;2023-02-05T18:25:39;1.40;1.00
12438;DHT22;6283;51.330;12.374;2023-02-05T18:28:05;1.20;1.00
12438;DHT22;6283;51.330;12.374;2023-02-05T18:30:31;1.20;1.00
12438;DHT22;6283;51.330;12.374;2023-02-05T18:32:56;1.30;1.00
12438;DHT22;6283;51.330;12.374;2023-02-05T18:35:22;1.20;1.00
12438;DHT22;6283;51.330;12.374;2023-02-05T18:37:48;1.40;1.00
12438;DHT22;6283;51.330;12.374;2023-02-05T18:40:13;1.30;1.00
12438;DHT22;6283;51.330;12.374;2023-02-05T18:42:42;1.10;1.00
12438;DHT22;6283;51.330;12.374;2023-02-05T18:45:11;1.40;1.00